Weather at Heraklion International Nikos Kazantzakis Airport

Public forecast

Using degrees Celsius for public forecast. Weather courtesy of forecast.io.

Current aviation weather report (METAR) for Heraklion International Nikos Kazantzakis Airport

Retrieved 2021/03/02 07:20 UTC (0 seconds ago):

LGIR 020720Z 34018KT 9999 FEW025 SCT080 13/07 Q1026 NOSIG

Aviation forecast (TAF) for Heraklion International Nikos Kazantzakis Airport

Forecast is more than 6 hours old.

Retrieved 2021-03-02 00:16 UTC (7 hours ago):

TAF LGIR 012300Z 0200/0224 34020KT 9999 SCT025 BECMG 0200/0202 34020G30KT SCT020 BKN080 PROB30 TEMPO 0206/0218 5000 RA BKN030